Time;durP1;ratioP1;P1;durP2;ratioP2;P2;SDS_P1;SDS_P2;PMS_P1;PMS_P2;Temp;Humidity;BMP_temperature;BMP_pressure;BME280_temperature;BME280_humidity;BME280_pressure;Samples;Min_cycle;Max_cycle;Signal;HPM_P1;HPM_P2
2022/07/22 00:01:42;;;;;;;6.97;6.20;;;20.90;99.90;;;;;;5029798;28;21008;-51
2022/07/22 00:04:09;;;;;;;6.17;5.57;;;20.90;99.90;;;;;;5029826;28;20454;-48
2022/07/22 00:06:36;;;;;;;7.70;6.20;;;20.70;99.90;;;;;;5029813;28;20442;-54
2022/07/22 00:09:05;;;;;;;6.47;5.87;;;20.70;99.90;;;;;;5029437;28;20462;-49
2022/07/22 00:11:32;;;;;;;6.87;5.60;;;20.70;99.90;;;;;;5030091;28;20795;-48
2022/07/22 00:13:59;;;;;;;6.40;5.03;;;20.70;99.90;;;;;;5033727;28;20504;-50
2022/07/22 00:16:26;;;;;;;6.73;5.67;;;20.60;99.90;;;;;;5033544;28;20476;-48
2022/07/22 00:18:53;;;;;;;5.83;5.23;;;20.60;99.90;;;;;;5033455;28;20516;-48
2022/07/22 00:21:20;;;;;;;6.07;5.30;;;20.70;99.90;;;;;;5033542;28;20887;-48
2022/07/22 00:23:47;;;;;;;6.17;5.23;;;20.70;99.90;;;;;;5033645;28;20474;-48
2022/07/22 00:26:15;;;;;;;8.60;6.17;;;20.80;99.90;;;;;;5033311;28;20884;-50
2022/07/22 00:28:42;;;;;;;6.80;6.10;;;20.70;99.90;;;;;;5033056;28;21887;-51
2022/07/22 00:31:09;;;;;;;11.20;8.67;;;20.60;99.90;;;;;;5033209;28;20473;-48
2022/07/22 00:33:36;;;;;;;9.27;8.37;;;20.30;99.90;;;;;;5033285;28;20434;-50
2022/07/22 00:36:04;;;;;;;9.70;7.63;;;20.20;99.90;;;;;;5033212;28;20474;-48
2022/07/22 00:38:31;;;;;;;8.60;7.70;;;20.10;99.90;;;;;;5033122;28;20955;-48
2022/07/22 00:40:58;;;;;;;12.10;9.87;;;20.10;99.90;;;;;;5033086;28;20481;-50
2022/07/22 00:43:26;;;;;;;10.87;9.77;;;20.10;99.90;;;;;;5033116;28;20869;-48
2022/07/22 00:45:53;;;;;;;10.60;8.30;;;20.20;99.90;;;;;;5033429;28;20816;-48
2022/07/22 00:48:20;;;;;;;10.17;9.00;;;20.30;99.90;;;;;;5033115;28;20446;-48
2022/07/22 00:50:47;;;;;;;10.77;8.87;;;20.30;99.90;;;;;;5032935;28;20457;-50
2022/07/22 00:53:14;;;;;;;11.10;9.97;;;20.40;99.90;;;;;;5032803;28;20492;-49
2022/07/22 00:55:42;;;;;;;11.83;10.50;;;20.40;99.90;;;;;;5032933;28;20469;-49
2022/07/22 00:58:09;;;;;;;10.50;9.40;;;20.30;99.90;;;;;;5032977;28;20450;-48
2022/07/22 01:00:37;;;;;;;12.50;10.23;;;20.20;99.90;;;;;;5032671;28;20458;-49
2022/07/22 01:03:04;;;;;;;10.83;9.73;;;20.10;99.90;;;;;;5033159;28;20452;-48
2022/07/22 01:05:31;;;;;;;10.33;9.33;;;20.00;99.90;;;;;;5032779;28;20470;-51
2022/07/22 01:07:58;;;;;;;10.73;9.57;;;20.10;99.90;;;;;;5033094;28;20450;-50
2022/07/22 01:10:26;;;;;;;9.83;8.90;;;20.00;99.90;;;;;;5032421;28;20478;-48
2022/07/22 01:12:53;;;;;;;12.53;10.00;;;20.00;99.90;;;;;;5032585;28;20434;-50
2022/07/22 01:15:20;;;;;;;12.63;10.77;;;20.00;99.90;;;;;;5032582;28;20442;-48
2022/07/22 01:17:48;;;;;;;12.50;10.33;;;20.00;99.90;;;;;;5032658;28;20939;-49
2022/07/22 01:20:17;;;;;;;10.80;9.80;;;20.00;99.90;;;;;;5032113;28;20463;-48
2022/07/22 01:22:44;;;;;;;11.77;10.67;;;20.10;99.90;;;;;;5032035;28;20454;-48
2022/07/22 01:25:11;;;;;;;11.03;9.93;;;20.00;99.90;;;;;;5032382;28;20437;-52
2022/07/22 01:27:38;;;;;;;12.20;10.27;;;20.00;99.90;;;;;;5032358;28;20430;-48
2022/07/22 01:30:07;;;;;;;12.27;10.30;;;20.00;99.90;;;;;;5032005;28;20509;-51
2022/07/22 01:32:35;;;;;;;12.93;10.27;;;20.10;99.90;;;;;;5032058;28;20440;-50
2022/07/22 01:35:02;;;;;;;11.50;10.30;;;20.10;99.90;;;;;;5032443;28;20453;-48
2022/07/22 01:37:30;;;;;;;13.30;11.80;;;20.10;99.90;;;;;;5032386;28;20747;-48
2022/07/22 01:39:57;;;;;;;12.07;10.87;;;20.10;99.90;;;;;;5031873;28;20961;-49
2022/07/22 01:42:24;;;;;;;15.10;13.30;;;20.10;99.90;;;;;;5032239;28;20446;-48
2022/07/22 01:44:51;;;;;;;13.33;11.93;;;20.00;99.90;;;;;;5032167;28;20454;-51
2022/07/22 01:47:19;;;;;;;15.67;13.17;;;19.90;99.90;;;;;;5032153;28;20469;-50
2022/07/22 01:49:46;;;;;;;12.70;11.40;;;19.90;99.90;;;;;;5031793;28;20458;-48
2022/07/22 01:52:13;;;;;;;13.60;12.03;;;19.90;99.90;;;;;;5031950;28;20474;-48
2022/07/22 01:54:41;;;;;;;13.17;11.83;;;19.90;99.90;;;;;;5031677;28;21177;-49
2022/07/22 01:57:08;;;;;;;11.97;10.77;;;19.90;99.90;;;;;;5031548;28;21044;-50
2022/07/22 01:59:35;;;;;;;14.70;11.40;;;19.80;99.90;;;;;;5031839;28;20774;-48
2022/07/22 02:02:02;;;;;;;12.00;10.30;;;19.80;99.90;;;;;;5031915;28;20450;-50
2022/07/22 02:04:29;;;;;;;11.90;10.80;;;19.80;99.90;;;;;;5031616;28;20439;-48
2022/07/22 02:06:56;;;;;;;12.57;11.00;;;19.80;99.90;;;;;;5031747;28;20450;-51
2022/07/22 02:09:23;;;;;;;13.50;12.17;;;19.90;99.90;;;;;;5031474;28;20466;-49
2022/07/22 02:11:51;;;;;;;13.93;12.30;;;19.90;99.90;;;;;;5031640;28;20815;-48
2022/07/22 02:14:18;;;;;;;14.20;11.17;;;19.90;99.90;;;;;;5031629;28;20513;-52
2022/07/22 02:16:45;;;;;;;18.43;11.93;;;19.90;99.90;;;;;;5031372;28;20995;-48
2022/07/22 02:19:12;;;;;;;13.37;10.60;;;19.90;99.90;;;;;;5031173;28;20462;-48
2022/07/22 02:21:39;;;;;;;11.93;9.90;;;19.90;99.90;;;;;;5031176;28;20446;-48
2022/07/22 02:24:07;;;;;;;16.10;11.00;;;19.90;99.90;;;;;;5031437;28;20690;-48
2022/07/22 02:26:34;;;;;;;12.30;10.27;;;19.80;99.90;;;;;;5031338;28;20434;-49
2022/07/22 02:29:03;;;;;;;13.70;10.50;;;19.80;99.90;;;;;;5030765;28;20568;-49
2022/07/22 02:31:30;;;;;;;12.20;10.67;;;19.80;99.90;;;;;;5030902;28;20446;-50
2022/07/22 02:33:57;;;;;;;10.40;9.40;;;19.80;99.90;;;;;;5031023;28;20442;-48
2022/07/22 02:36:24;;;;;;;13.33;10.37;;;19.80;99.90;;;;;;5031022;28;20532;-51
2022/07/22 02:38:51;;;;;;;10.97;9.73;;;19.60;99.90;;;;;;5030836;28;20520;-48
2022/07/22 02:41:18;;;;;;;12.07;10.83;;;19.60;99.90;;;;;;5031067;28;20442;-48
2022/07/22 02:43:45;;;;;;;11.57;10.30;;;19.60;99.90;;;;;;5031063;28;20451;-49
2022/07/22 02:46:13;;;;;;;12.03;9.33;;;19.60;99.90;;;;;;5030864;28;20795;-48
2022/07/22 02:48:40;;;;;;;9.70;8.77;;;19.60;99.90;;;;;;5030914;28;20628;-46
2022/07/22 02:51:07;;;;;;;12.13;9.93;;;19.60;99.90;;;;;;5030862;28;20450;-50
2022/07/22 02:53:34;;;;;;;13.30;11.90;;;19.60;99.90;;;;;;5030458;28;20458;-48
2022/07/22 02:56:01;;;;;;;10.70;9.70;;;19.60;99.90;;;;;;5030708;28;20470;-50
2022/07/22 02:58:28;;;;;;;10.43;9.33;;;19.60;99.90;;;;;;5030614;28;20480;-48
2022/07/22 03:00:55;;;;;;;10.70;9.60;;;19.60;99.90;;;;;;5030518;28;20470;-48
2022/07/22 03:03:24;;;;;;;11.73;10.00;;;19.60;99.90;;;;;;5030586;28;20442;-49
2022/07/22 03:05:51;;;;;;;10.73;9.77;;;19.60;99.90;;;;;;5030618;28;20580;-52
2022/07/22 03:08:18;;;;;;;14.10;10.53;;;19.50;99.90;;;;;;5030686;28;20508;-48
2022/07/22 03:10:45;;;;;;;10.77;8.87;;;19.60;99.90;;;;;;5030332;28;20447;-48
2022/07/22 03:13:12;;;;;;;9.83;8.53;;;19.50;99.90;;;;;;5030612;28;20442;-48
2022/07/22 03:15:39;;;;;;;11.77;9.63;;;19.50;99.90;;;;;;5030474;28;20446;-50
2022/07/22 03:18:06;;;;;;;9.30;8.37;;;19.50;99.90;;;;;;5030122;28;20535;-50
2022/07/22 03:20:35;;;;;;;12.20;8.30;;;19.40;99.90;;;;;;5030035;28;20467;-50
2022/07/22 03:23:02;;;;;;;9.00;8.10;;;19.40;99.90;;;;;;5030043;28;20493;-49
2022/07/22 03:25:30;;;;;;;9.10;7.93;;;19.40;99.90;;;;;;5030233;28;20505;-48
2022/07/22 03:27:58;;;;;;;11.93;9.03;;;19.40;99.90;;;;;;5030346;28;20443;-45
2022/07/22 03:30:25;;;;;;;8.37;7.47;;;19.40;99.90;;;;;;5031227;28;20528;-50
2022/07/22 03:32:52;;;;;;;12.67;8.40;;;19.50;99.90;;;;;;5030049;28;20935;-48
2022/07/22 03:35:19;;;;;;;9.30;8.37;;;19.40;99.90;;;;;;5029997;28;20492;-48
2022/07/22 03:37:47;;;;;;;9.63;8.70;;;19.50;99.90;;;;;;5030056;28;20889;-48
2022/07/22 03:40:15;;;;;;;9.23;8.23;;;19.50;99.90;;;;;;5030076;28;20574;-48
2022/07/22 03:42:41;;;;;;;9.80;8.20;;;19.50;99.90;;;;;;5030155;28;20937;-49
2022/07/22 03:45:10;;;;;;;10.10;9.00;;;19.50;99.90;;;;;;5030068;28;20997;-48
2022/07/22 03:47:37;;;;;;;11.20;8.60;;;19.30;99.90;;;;;;5028839;28;20902;-48
2022/07/22 03:50:05;;;;;;;10.00;8.50;;;19.30;99.90;;;;;;5029876;28;20522;-52
2022/07/22 03:52:32;;;;;;;13.23;9.73;;;19.20;99.90;;;;;;5029935;28;20509;-48
2022/07/22 03:55:01;;;;;;;10.57;9.47;;;19.10;99.90;;;;;;5029784;28;20446;-49
2022/07/22 03:57:29;;;;;;;11.17;10.07;;;19.10;99.90;;;;;;5029587;28;20478;-49
2022/07/22 03:59:56;;;;;;;10.80;9.57;;;19.10;99.90;;;;;;5029521;28;20461;-48
2022/07/22 04:02:23;;;;;;;13.13;10.30;;;19.10;99.90;;;;;;5030171;28;20450;-51
2022/07/22 04:04:49;;;;;;;10.83;9.73;;;19.20;99.90;;;;;;5029703;28;20493;-48
2022/07/22 04:07:16;;;;;;;11.17;8.80;;;19.20;99.90;;;;;;5029829;28;20466;-49
2022/07/22 04:09:43;;;;;;;10.93;8.30;;;19.30;99.90;;;;;;5029332;28;20469;-52
2022/07/22 04:12:12;;;;;;;9.30;8.20;;;19.30;99.90;;;;;;5029818;28;20519;-48
2022/07/22 04:14:39;;;;;;;9.63;8.63;;;19.40;99.90;;;;;;5029712;28;20959;-48
2022/07/22 04:17:06;;;;;;;10.13;8.83;;;19.50;99.90;;;;;;5029496;28;20466;-52
2022/07/22 04:19:33;;;;;;;10.27;9.17;;;19.50;99.90;;;;;;5029316;28;20470;-48
2022/07/22 04:22:00;;;;;;;10.70;8.90;;;19.50;99.90;;;;;;5029236;28;20451;-50
2022/07/22 04:24:27;;;;;;;12.50;8.60;;;19.50;99.90;;;;;;5029566;28;20477;-48
2022/07/22 04:26:54;;;;;;;9.17;8.23;;;19.50;99.90;;;;;;5029578;28;20438;-49
2022/07/22 04:29:22;;;;;;;9.77;8.87;;;19.50;99.90;;;;;;5029191;28;21005;-49
2022/07/22 04:31:49;;;;;;;9.50;8.40;;;19.50;99.90;;;;;;5029656;28;20434;-48
2022/07/22 04:34:16;;;;;;;11.50;9.87;;;19.50;99.90;;;;;;5029567;28;20819;-48
2022/07/22 04:36:43;;;;;;;10.87;9.77;;;19.50;99.90;;;;;;5029408;28;20556;-52
2022/07/22 04:39:10;;;;;;;10.40;9.40;;;19.50;99.90;;;;;;5029115;28;20469;-48
2022/07/22 04:41:37;;;;;;;16.07;10.40;;;19.60;99.90;;;;;;5029467;28;20446;-49
2022/07/22 04:44:05;;;;;;;11.17;10.03;;;19.60;99.90;;;;;;5029534;28;20450;-49
2022/07/22 04:46:33;;;;;;;9.77;8.30;;;19.60;99.90;;;;;;5029657;28;20849;-48
2022/07/22 04:49:00;;;;;;;9.60;8.43;;;19.60;99.90;;;;;;5029186;28;20504;-52
2022/07/22 04:51:27;;;;;;;13.23;10.13;;;19.60;99.90;;;;;;5029313;28;20438;-48
2022/07/22 04:53:54;;;;;;;10.60;9.50;;;19.60;99.90;;;;;;5029104;28;20818;-49
2022/07/22 04:56:21;;;;;;;11.10;9.30;;;19.60;99.90;;;;;;5029257;28;20939;-48
2022/07/22 04:58:48;;;;;;;10.43;9.40;;;19.60;99.90;;;;;;5031318;28;20544;-50
2022/07/22 05:01:15;;;;;;;11.30;10.17;;;19.50;99.90;;;;;;5033047;28;20434;-50
2022/07/22 05:03:43;;;;;;;11.23;10.00;;;19.40;99.90;;;;;;5033220;28;20430;-49
2022/07/22 05:06:10;;;;;;;9.40;8.50;;;19.50;99.90;;;;;;5032760;28;20481;-48
2022/07/22 05:08:37;;;;;;;11.80;9.03;;;19.50;99.90;;;;;;5032849;28;20482;-50
2022/07/22 05:11:05;;;;;;;12.20;11.00;;;19.60;99.90;;;;;;5032717;28;20496;-50
2022/07/22 05:13:32;;;;;;;10.73;9.47;;;19.60;99.90;;;;;;5032713;28;20450;-50
2022/07/22 05:16:03;;;;;;;9.80;8.80;;;19.50;99.90;;;;;;5032535;28;20806;-48
2022/07/22 05:18:30;;;;;;;10.27;9.27;;;19.50;99.90;;;;;;5032757;28;20939;-48
2022/07/22 05:20:59;;;;;;;10.37;9.27;;;19.50;99.90;;;;;;5032024;28;20518;-48
2022/07/22 05:23:26;;;;;;;12.43;8.40;;;19.40;99.90;;;;;;5032551;28;20454;-50
2022/07/22 05:25:53;;;;;;;10.73;9.63;;;19.40;99.90;;;;;;5032380;28;20430;-48
2022/07/22 05:28:20;;;;;;;9.77;8.87;;;19.40;99.90;;;;;;5032402;28;20455;-48
2022/07/22 05:30:47;;;;;;;9.80;8.73;;;19.40;99.90;;;;;;5032047;28;20810;-49
2022/07/22 05:33:14;;;;;;;12.30;9.60;;;19.50;99.90;;;;;;5032305;28;20458;-50
2022/07/22 05:35:41;;;;;;;9.43;8.53;;;19.60;99.90;;;;;;5032306;28;21053;-49
2022/07/22 05:38:10;;;;;;;9.50;8.47;;;19.60;99.90;;;;;;5032013;28;20498;-49
2022/07/22 05:40:37;;;;;;;11.60;10.50;;;19.50;99.90;;;;;;5032013;28;20474;-48
2022/07/22 05:43:04;;;;;;;10.17;9.20;;;19.50;99.90;;;;;;5032137;28;20433;-48
2022/07/22 05:45:31;;;;;;;12.23;9.87;;;19.40;99.90;;;;;;5031926;28;20525;-52
2022/07/22 05:47:58;;;;;;;10.67;9.57;;;19.50;99.90;;;;;;5032209;28;20501;-48
2022/07/22 05:50:25;;;;;;;11.90;10.03;;;19.50;99.90;;;;;;5031773;28;20471;-49
2022/07/22 05:52:52;;;;;;;11.10;10.00;;;19.60;99.90;;;;;;5031930;28;20446;-48
2022/07/22 05:55:21;;;;;;;10.77;9.67;;;19.50;99.90;;;;;;5031777;28;20506;-48
2022/07/22 05:57:48;;;;;;;11.60;10.40;;;19.50;99.90;;;;;;5031706;28;20528;-50
2022/07/22 06:00:15;;;;;;;11.50;10.43;;;19.50;99.90;;;;;;5031602;28;20541;-49
2022/07/22 06:02:42;;;;;;;10.83;9.57;;;19.30;99.90;;;;;;5031815;28;20478;-51
2022/07/22 06:05:09;;;;;;;28.40;22.17;;;19.30;99.90;;;;;;5031871;28;20454;-50
2022/07/22 06:07:36;;;;;;;19.37;17.37;;;19.30;99.90;;;;;;5032161;28;20505;-48
2022/07/22 06:10:04;;;;;;;12.80;10.40;;;19.30;99.90;;;;;;5030400;28;20474;-48
2022/07/22 06:12:32;;;;;;;13.57;10.10;;;19.30;99.90;;;;;;5031673;28;20458;-48
2022/07/22 06:14:59;;;;;;;10.90;9.80;;;19.50;99.90;;;;;;5031636;28;21025;-51
2022/07/22 06:17:26;;;;;;;11.50;10.23;;;20.30;99.90;;;;;;5031727;28;20864;-51
2022/07/22 06:19:53;;;;;;;10.80;9.70;;;21.20;99.90;;;;;;5031243;28;20466;-48
2022/07/22 06:22:20;;;;;;;12.77;10.90;;;22.20;99.90;;;;;;5031137;28;20451;-51
2022/07/22 06:24:47;;;;;;;10.97;9.77;;;22.90;99.90;;;;;;5031391;28;20442;-49
2022/07/22 06:27:14;;;;;;;11.00;10.00;;;23.30;99.90;;;;;;5031335;28;20500;-51
2022/07/22 06:29:42;;;;;;;10.80;9.70;;;23.30;99.90;;;;;;5030766;28;21006;-49
2022/07/22 06:32:09;;;;;;;9.30;8.40;;;23.30;99.90;;;;;;5031128;28;20450;-49
2022/07/22 06:34:36;;;;;;;11.10;10.00;;;23.10;99.90;;;;;;5031228;28;20507;-51
2022/07/22 06:37:04;;;;;;;10.87;9.77;;;22.90;99.90;;;;;;5030987;28;20951;-49
2022/07/22 06:39:31;;;;;;;10.23;9.33;;;22.70;99.90;;;;;;5030845;28;20524;-52
2022/07/22 06:41:58;;;;;;;12.20;11.00;;;22.50;99.90;;;;;;5031125;28;20721;-49
2022/07/22 06:44:25;;;;;;;10.27;9.33;;;22.20;99.90;;;;;;5031092;28;20858;-51
2022/07/22 06:46:53;;;;;;;9.90;9.10;;;22.10;99.90;;;;;;5031054;28;20535;-49
2022/07/22 06:49:20;;;;;;;10.10;9.10;;;22.00;99.90;;;;;;5030507;28;20974;-49
2022/07/22 06:51:47;;;;;;;10.03;9.13;;;22.00;99.90;;;;;;5030816;28;20517;-49
2022/07/22 06:54:14;;;;;;;10.43;9.47;;;21.90;99.90;;;;;;5030731;28;20508;-50
2022/07/22 06:56:41;;;;;;;10.00;9.10;;;21.80;99.90;;;;;;5030822;28;20936;-48
2022/07/22 06:59:08;;;;;;;11.00;9.90;;;21.80;99.90;;;;;;5030600;28;20478;-51
2022/07/22 07:01:35;;;;;;;12.10;9.97;;;21.80;99.90;;;;;;5030713;28;20442;-48
2022/07/22 07:04:04;;;;;;;10.77;9.70;;;21.80;99.90;;;;;;5030669;28;20450;-51
2022/07/22 07:06:31;;;;;;;9.83;8.83;;;21.90;99.90;;;;;;5030472;28;20435;-50
2022/07/22 07:08:58;;;;;;;11.30;10.20;;;21.90;99.90;;;;;;5030290;28;20466;-48
2022/07/22 07:11:25;;;;;;;11.73;9.93;;;21.90;99.90;;;;;;5030587;28;20456;-49
2022/07/22 07:13:52;;;;;;;10.23;9.33;;;21.90;99.90;;;;;;5030901;28;20442;-50
2022/07/22 07:16:19;;;;;;;9.43;8.07;;;22.00;99.90;;;;;;5030500;28;20512;-49
2022/07/22 07:18:46;;;;;;;10.97;9.83;;;22.00;99.90;;;;;;5029918;28;20493;-46
2022/07/22 07:21:15;;;;;;;9.17;8.27;;;22.10;99.90;;;;;;5030020;28;20446;-51
2022/07/22 07:23:42;;;;;;;10.13;9.10;;;22.10;99.90;;;;;;5030553;28;20485;-50
2022/07/22 07:26:09;;;;;;;10.80;9.70;;;22.20;99.90;;;;;;5030346;28;20439;-50
2022/07/22 07:28:36;;;;;;;11.00;9.90;;;22.20;99.90;;;;;;5030090;28;20438;-52
2022/07/22 07:31:03;;;;;;;9.23;8.33;;;22.20;99.90;;;;;;5030206;28;20458;-48
2022/07/22 07:33:30;;;;;;;9.53;8.53;;;22.30;99.90;;;;;;5029944;28;20504;-51
2022/07/22 07:35:57;;;;;;;11.00;9.90;;;22.50;99.90;;;;;;5030373;28;20458;-48
2022/07/22 07:38:26;;;;;;;10.20;9.20;;;23.20;99.90;;;;;;5030020;28;20466;-48
2022/07/22 07:40:53;;;;;;;9.53;8.60;;;24.10;99.90;;;;;;5030054;28;20438;-51
2022/07/22 07:43:21;;;;;;;9.73;8.83;;;24.80;99.90;;;;;;5030252;28;20454;-49
2022/07/22 07:45:48;;;;;;;9.50;8.60;;;24.80;99.90;;;;;;5030584;28;20427;-49
2022/07/22 07:48:15;;;;;;;10.20;9.13;;;25.00;99.90;;;;;;5030155;28;20452;-54
2022/07/22 07:50:42;;;;;;;9.93;9.03;;;25.00;99.90;;;;;;5029681;28;20442;-52
2022/07/22 07:53:09;;;;;;;10.37;8.80;;;24.90;99.90;;;;;;5029896;28;20442;-50
2022/07/22 07:55:39;;;;;;;10.53;8.77;;;24.80;99.90;;;;;;5030130;28;20447;-52
2022/07/22 07:58:06;;;;;;;8.97;8.20;;;24.80;99.90;;;;;;5029860;28;20559;-51
2022/07/22 08:00:34;;;;;;;9.27;8.40;;;24.90;99.90;;;;;;5029738;28;20524;-51
2022/07/22 08:03:01;;;;;;;9.10;8.30;;;25.00;99.90;;;;;;5029846;28;20434;-51
2022/07/22 08:05:29;;;;;;;10.70;9.70;;;25.30;99.90;;;;;;5029834;28;20811;-51
2022/07/22 08:07:56;;;;;;;9.13;8.30;;;25.60;99.90;;;;;;5029828;28;20492;-50
2022/07/22 08:13:47;;;;;;;9.33;8.43;;;26.20;99.90;;;;;;5030281;28;20486;-49
2022/07/22 08:16:14;;;;;;;9.33;8.53;;;26.20;99.90;;;;;;5029839;28;20450;-49
2022/07/22 08:18:41;;;;;;;9.77;8.87;;;26.20;99.90;;;;;;5029361;28;20509;-51
2022/07/22 08:21:08;;;;;;;10.63;9.67;;;26.20;99.90;;;;;;5029560;28;20540;-51
2022/07/22 08:23:35;;;;;;;10.83;9.83;;;26.10;99.90;;;;;;5029789;28;20450;-49
2022/07/22 08:26:02;;;;;;;11.00;10.00;;;26.10;99.90;;;;;;5029879;28;20524;-49
2022/07/22 08:28:29;;;;;;;9.63;8.63;;;26.30;99.90;;;;;;5029675;28;20472;-54
2022/07/22 08:30:58;;;;;;;10.43;9.53;;;26.40;99.90;;;;;;5030034;28;20470;-51
2022/07/22 08:33:25;;;;;;;10.63;9.63;;;26.20;99.90;;;;;;5031807;28;20465;-49
2022/07/22 08:35:52;;;;;;;10.00;8.93;;;26.20;99.90;;;;;;5033884;28;20496;-54
2022/07/22 08:38:19;;;;;;;11.10;8.70;;;26.10;99.90;;;;;;5033586;28;20499;-49
2022/07/22 08:40:46;;;;;;;9.80;8.90;;;26.20;99.90;;;;;;5033650;28;20422;-51
2022/07/22 08:43:13;;;;;;;10.43;9.53;;;26.30;99.90;;;;;;5033953;28;20437;-50
2022/07/22 08:45:41;;;;;;;10.40;9.40;;;26.30;99.90;;;;;;5034469;28;20454;-50
2022/07/22 08:48:10;;;;;;;8.70;8.00;;;26.20;99.90;;;;;;5033437;28;20841;-49
2022/07/22 08:50:37;;;;;;;10.00;9.07;;;26.40;99.90;;;;;;5033490;28;20996;-51
2022/07/22 08:53:04;;;;;;;11.10;10.10;;;26.60;99.90;;;;;;5033098;28;20442;-51
2022/07/22 08:55:31;;;;;;;10.70;9.60;;;26.50;99.90;;;;;;5033609;28;20434;-51
2022/07/22 08:57:58;;;;;;;11.73;10.60;;;26.60;99.90;;;;;;5033776;28;20466;-51
2022/07/22 09:00:25;;;;;;;9.97;9.03;;;26.70;99.90;;;;;;5033369;28;20474;-52
2022/07/22 09:02:52;;;;;;;11.03;9.93;;;26.50;99.90;;;;;;5033462;28;20450;-50
2022/07/22 09:05:21;;;;;;;8.97;8.17;;;26.80;99.90;;;;;;5033634;28;20794;-52
2022/07/22 09:07:48;;;;;;;9.30;8.40;;;26.90;99.90;;;;;;5033364;28;20438;-51
2022/07/22 09:10:19;;;;;;;10.73;9.40;;;26.80;99.90;;;;;;5033179;28;20469;-48
2022/07/22 09:12:55;;;;;;;10.87;9.87;;;26.90;99.90;;;;;;5033213;28;20826;-50
2022/07/22 09:15:30;;;;;;;11.07;9.80;;;27.10;99.90;;;;;;5033078;28;20434;-52
2022/07/22 09:17:58;;;;;;;10.23;9.30;;;27.00;99.90;;;;;;5032930;28;20449;-49
2022/07/22 09:20:28;;;;;;;10.03;9.03;;;27.00;99.90;;;;;;5033015;28;20516;-49
2022/07/22 09:22:55;;;;;;;10.17;9.17;;;27.10;99.90;;;;;;5032933;28;20959;-49
2022/07/22 09:25:29;;;;;;;8.60;7.80;;;27.10;99.90;;;;;;5033247;28;20935;-50
2022/07/22 09:28:09;;;;;;;8.30;7.60;;;26.90;99.90;;;;;;5033118;28;20446;-51
2022/07/22 09:30:38;;;;;;;9.67;8.77;;;27.00;99.90;;;;;;5120416;22;20484;-47
2022/07/22 09:33:07;;;;;;;10.10;9.20;;;27.20;99.90;;;;;;5071827;28;20443;-50
2022/07/22 09:35:36;;;;;;;8.83;8.03;;;27.10;99.90;;;;;;5072449;28;20463;-47
2022/07/22 09:38:05;;;;;;;9.60;8.70;;;27.10;99.90;;;;;;5072190;28;20449;-46
2022/07/22 09:40:34;;;;;;;9.73;8.93;;;26.90;99.90;;;;;;5071865;28;20493;-49
2022/07/22 09:43:02;;;;;;;8.97;8.17;;;27.00;99.90;;;;;;5071988;28;20960;-47
2022/07/22 09:45:31;;;;;;;9.97;9.03;;;27.20;99.90;;;;;;5072095;28;20448;-46
2022/07/22 09:47:59;;;;;;;9.43;8.63;;;27.30;99.90;;;;;;5072185;28;20440;-46
2022/07/22 09:50:28;;;;;;;9.37;8.23;;;27.40;99.90;;;;;;5071797;28;20472;-50
2022/07/22 09:52:59;;;;;;;8.60;7.90;;;27.60;99.90;;;;;;5071886;28;20448;-47
2022/07/22 09:55:27;;;;;;;9.17;8.37;;;27.50;99.90;;;;;;5071801;28;20764;-47
2022/07/22 09:57:57;;;;;;;9.03;8.23;;;27.40;99.90;;;;;;5071869;28;20855;-46
2022/07/22 10:00:27;;;;;;;7.93;7.20;;;27.40;99.90;;;;;;5071361;28;20456;-47
2022/07/22 10:02:56;;;;;;;10.70;9.50;;;27.20;99.90;;;;;;5072419;28;20490;-48
2022/07/22 10:05:25;;;;;;;9.63;8.70;;;27.30;99.90;;;;;;5071721;28;20437;-48
2022/07/22 10:07:54;;;;;;;10.40;9.40;;;27.40;99.90;;;;;;5071817;28;20448;-48
2022/07/22 10:10:25;;;;;;;11.10;9.67;;;27.50;99.90;;;;;;5071258;28;20874;-48
2022/07/22 10:12:54;;;;;;;9.80;8.80;;;27.60;99.90;;;;;;5071565;28;20457;-46
2022/07/22 10:15:22;;;;;;;9.30;8.50;;;27.70;99.90;;;;;;5071721;28;20863;-47
2022/07/22 10:17:51;;;;;;;9.33;8.53;;;27.80;99.90;;;;;;5071617;28;20453;-46
2022/07/22 10:20:19;;;;;;;9.87;8.97;;;27.80;99.90;;;;;;5070913;28;20480;-46
2022/07/22 10:22:54;;;;;;;11.20;9.50;;;28.00;99.90;;;;;;5070568;28;20941;-48
2022/07/22 10:25:25;;;;;;;9.47;8.57;;;28.00;99.90;;;;;;5071484;28;20800;-46
2022/07/22 10:27:55;;;;;;;9.07;8.27;;;28.10;99.90;;;;;;5071389;28;20421;-47
2022/07/22 10:30:24;;;;;;;9.30;8.43;;;28.00;99.90;;;;;;5070836;28;20605;-46
2022/07/22 10:33:12;;;;;;;10.70;9.70;;;28.20;99.90;;;;;;5071013;28;20452;-46
2022/07/22 10:35:54;;;;;;;10.47;9.57;;;28.20;99.90;;;;;;5071363;28;20457;-49
2022/07/22 10:38:22;;;;;;;9.43;8.53;;;28.20;99.90;;;;;;5070952;28;20452;-51
2022/07/22 10:40:54;;;;;;;9.03;8.20;;;28.30;99.90;;;;;;5071084;28;20464;-47
2022/07/22 10:43:24;;;;;;;10.70;9.70;;;28.30;99.90;;;;;;5071087;28;20429;-48
2022/07/22 10:45:53;;;;;;;11.40;10.20;;;28.30;99.90;;;;;;5070865;28;20439;-47
2022/07/22 10:48:23;;;;;;;9.67;8.77;;;28.30;99.90;;;;;;5071047;28;20505;-47
2022/07/22 10:50:58;;;;;;;8.93;8.17;;;28.30;99.90;;;;;;5070413;28;20503;-46
2022/07/22 10:53:40;;;;;;;10.23;9.43;;;28.40;99.90;;;;;;5070411;28;20489;-46
2022/07/22 10:56:18;;;;;;;9.90;8.90;;;28.40;99.90;;;;;;5070441;28;20490;-46
2022/07/22 10:58:57;;;;;;;9.60;8.70;;;28.40;99.20;;;;;;5070592;28;20521;-47
2022/07/22 11:01:27;;;;;;;8.70;7.90;;;28.40;99.90;;;;;;5070726;28;20448;-46
2022/07/22 11:03:55;;;;;;;9.80;9.00;;;28.40;99.70;;;;;;5070751;28;20523;-47
2022/07/22 11:06:32;;;;;;;8.83;8.03;;;28.40;99.80;;;;;;5070587;28;20876;-48
2022/07/22 11:09:01;;;;;;;61.83;17.07;;;28.40;98.60;;;;;;5070575;28;20903;-47
2022/07/22 11:11:41;;;;;;;11.03;8.20;;;28.40;98.70;;;;;;5070691;28;20456;-47
2022/07/22 11:14:19;;;;;;;12.73;8.50;;;28.50;99.10;;;;;;5070683;28;20541;-48
2022/07/22 11:16:49;;;;;;;10.50;9.40;;;28.50;99.30;;;;;;5070611;28;20436;-47
2022/07/22 11:19:20;;;;;;;13.50;11.17;;;28.60;99.90;;;;;;5069803;28;20476;-50
2022/07/22 11:21:52;;;;;;;23.97;14.70;;;28.60;99.60;;;;;;5070347;28;20483;-46
2022/07/22 11:24:20;;;;;;;10.93;9.80;;;28.70;99.60;;;;;;5070375;28;20937;-46
2022/07/22 11:26:50;;;;;;;14.70;10.60;;;28.70;99.50;;;;;;5070299;28;20498;-47
2022/07/22 11:29:19;;;;;;;11.33;10.27;;;28.70;99.70;;;;;;5069890;28;20553;-49
2022/07/22 11:31:46;;;;;;;10.67;9.67;;;28.80;99.10;;;;;;5069762;28;20483;-47
2022/07/22 11:34:15;;;;;;;10.57;9.67;;;28.90;99.90;;;;;;5069963;28;20490;-47
2022/07/22 11:36:44;;;;;;;11.60;10.30;;;28.80;99.20;;;;;;5070160;28;21038;-47
2022/07/22 11:39:13;;;;;;;12.13;10.03;;;28.90;99.80;;;;;;5069832;28;20926;-46
2022/07/22 11:41:41;;;;;;;11.30;10.20;;;28.80;99.40;;;;;;5070054;28;20937;-47
2022/07/22 11:44:09;;;;;;;10.90;9.90;;;28.90;99.90;;;;;;5069913;28;20494;-47
2022/07/22 11:46:38;;;;;;;19.10;10.80;;;29.00;99.20;;;;;;5069968;28;20456;-47
2022/07/22 11:49:05;;;;;;;11.20;10.10;;;29.00;99.00;;;;;;5069403;28;21038;-48
2022/07/22 11:51:34;;;;;;;10.73;9.63;;;29.10;99.20;;;;;;5069970;28;20509;-48
2022/07/22 11:54:01;;;;;;;13.30;10.27;;;29.10;99.10;;;;;;5070271;28;20448;-47
2022/07/22 11:56:28;;;;;;;10.87;9.87;;;29.10;98.80;;;;;;5069740;28;20428;-49
2022/07/22 11:58:56;;;;;;;12.07;10.00;;;29.10;99.00;;;;;;5069078;28;20500;-46
2022/07/22 12:01:27;;;;;;;16.30;9.90;;;29.20;98.80;;;;;;5069773;28;20456;-46
2022/07/22 12:03:56;;;;;;;12.83;9.93;;;29.20;98.80;;;;;;5069877;28;20453;-48
2022/07/22 12:06:24;;;;;;;11.30;10.20;;;29.30;98.70;;;;;;5069355;28;20480;-46
2022/07/22 12:08:53;;;;;;;13.20;10.77;;;29.40;99.10;;;;;;5071968;28;20505;-47
2022/07/22 12:11:22;;;;;;;10.67;9.67;;;29.40;98.50;;;;;;5073842;28;20440;-46
2022/07/22 12:13:52;;;;;;;14.10;11.07;;;29.50;98.80;;;;;;5073455;28;20455;-50
2022/07/22 12:16:27;;;;;;;11.80;10.63;;;29.50;98.40;;;;;;5074058;28;20448;-46
2022/07/22 12:18:56;;;;;;;12.30;10.90;;;29.50;98.30;;;;;;5073327;28;20432;-50
2022/07/22 12:21:25;;;;;;;11.97;10.90;;;29.60;98.70;;;;;;5073463;28;20445;-46
2022/07/22 12:23:55;;;;;;;11.70;10.50;;;29.60;97.20;;;;;;5073598;28;20908;-50
2022/07/22 12:26:38;;;;;;;11.10;10.10;;;29.50;97.70;;;;;;5073574;28;20506;-50
2022/07/22 12:29:22;;;;;;;11.77;10.60;;;29.60;97.80;;;;;;5073111;28;20870;-49
2022/07/22 12:31:52;;;;;;;16.00;10.27;;;29.60;97.50;;;;;;5073945;28;20457;-47
2022/07/22 12:34:34;;;;;;;14.30;11.03;;;29.60;97.60;;;;;;5073534;28;20440;-47
2022/07/22 12:37:03;;;;;;;12.23;11.03;;;29.60;98.00;;;;;;5073355;28;20444;-49
2022/07/22 12:39:30;;;;;;;11.47;10.47;;;29.70;97.20;;;;;;5072730;28;20570;-46
2022/07/22 12:41:57;;;;;;;10.73;9.73;;;29.70;98.00;;;;;;5073487;28;20543;-48
2022/07/22 12:44:26;;;;;;;15.30;10.53;;;29.80;97.90;;;;;;5073142;28;20447;-46